sensor_id;sensor_type;location;lat;lon;timestamp;pressure;altitude;pressure_sealevel;temperature;humidity
40502;BME280;29631;49.168;9.848;2023-06-22T00:02:18;96804.59;;;25.94;91.35
40502;BME280;29631;49.168;9.848;2023-06-22T00:04:44;96779.34;;;25.85;91.31
40502;BME280;29631;49.168;9.848;2023-06-22T00:07:10;96774.97;;;25.89;91.81
40502;BME280;29631;49.168;9.848;2023-06-22T00:09:36;96775.66;;;25.94;91.40
40502;BME280;29631;49.168;9.848;2023-06-22T00:12:02;96752.06;;;25.86;91.40
40502;BME280;29631;49.168;9.848;2023-06-22T00:14:28;96735.13;;;25.81;91.07
40502;BME280;29631;49.168;9.848;2023-06-22T00:16:54;96750.66;;;25.89;91.72
40502;BME280;29631;49.168;9.848;2023-06-22T00:19:23;96744.53;;;25.83;91.57
40502;BME280;29631;49.168;9.848;2023-06-22T00:21:50;96725.72;;;25.78;91.71
40502;BME280;29631;49.168;9.848;2023-06-22T00:24:22;96737.31;;;25.79;91.79
40502;BME280;29631;49.168;9.848;2023-06-22T00:26:48;96725.81;;;25.73;91.72
40502;BME280;29631;49.168;9.848;2023-06-22T00:29:15;96719.06;;;25.71;91.44
40502;BME280;29631;49.168;9.848;2023-06-22T00:31:40;96710.47;;;25.69;91.50
40502;BME280;29631;49.168;9.848;2023-06-22T00:34:06;96700.53;;;25.64;91.65
40502;BME280;29631;49.168;9.848;2023-06-22T00:36:35;96707.25;;;25.67;91.22
40502;BME280;29631;49.168;9.848;2023-06-22T00:39:01;96710.66;;;25.72;91.30
40502;BME280;29631;49.168;9.848;2023-06-22T00:41:27;96703.03;;;25.61;91.43
40502;BME280;29631;49.168;9.848;2023-06-22T00:43:56;96719.75;;;25.63;91.38
40502;BME280;29631;49.168;9.848;2023-06-22T00:46:22;96681.63;;;25.51;91.34
40502;BME280;29631;49.168;9.848;2023-06-22T00:48:49;96692.03;;;25.58;91.38
40502;BME280;29631;49.168;9.848;2023-06-22T00:51:15;96694.19;;;25.42;91.43
40502;BME280;29631;49.168;9.848;2023-06-22T00:53:42;96695.19;;;25.46;91.55
40502;BME280;29631;49.168;9.848;2023-06-22T00:56:08;96680.69;;;25.42;91.60
40502;BME280;29631;49.168;9.848;2023-06-22T00:58:38;96672.78;;;25.32;91.54
40502;BME280;29631;49.168;9.848;2023-06-22T01:01:07;96699.59;;;25.42;91.52
40502;BME280;29631;49.168;9.848;2023-06-22T01:03:33;96676.94;;;25.25;91.66
40502;BME280;29631;49.168;9.848;2023-06-22T01:06:07;96703.28;;;25.33;92.08
40502;BME280;29631;49.168;9.848;2023-06-22T01:08:40;96709.41;;;25.38;91.56
40502;BME280;29631;49.168;9.848;2023-06-22T01:11:41;96680.41;;;25.12;92.18
40502;BME280;29631;49.168;9.848;2023-06-22T01:14:41;96727.06;;;25.31;91.79
40502;BME280;29631;49.168;9.848;2023-06-22T01:17:10;96731.75;;;25.25;92.46
40502;BME280;29631;49.168;9.848;2023-06-22T01:19:51;96717.72;;;25.10;92.27
40502;BME280;29631;49.168;9.848;2023-06-22T01:22:24;96745.63;;;25.19;92.26
40502;BME280;29631;49.168;9.848;2023-06-22T01:25:13;96760.72;;;25.20;92.93
40502;BME280;29631;49.168;9.848;2023-06-22T01:28:49;96759.13;;;25.19;93.03
40502;BME280;29631;49.168;9.848;2023-06-22T01:30:49;96750.53;;;25.17;92.43
40502;BME280;29631;49.168;9.848;2023-06-22T01:33:26;96742.84;;;25.05;92.79
40502;BME280;29631;49.168;9.848;2023-06-22T01:35:52;96747.09;;;25.11;92.74
40502;BME280;29631;49.168;9.848;2023-06-22T01:38:18;96758.41;;;25.13;92.62
40502;BME280;29631;49.168;9.848;2023-06-22T01:40:44;96801.09;;;25.11;92.92
40502;BME280;29631;49.168;9.848;2023-06-22T01:43:09;96832.31;;;25.17;93.01
40502;BME280;29631;49.168;9.848;2023-06-22T01:45:35;96803.31;;;25.04;92.95
40502;BME280;29631;49.168;9.848;2023-06-22T01:48:02;96816.69;;;25.14;92.84
40502;BME280;29631;49.168;9.848;2023-06-22T01:50:28;96826.31;;;25.20;92.88
40502;BME280;29631;49.168;9.848;2023-06-22T01:52:54;96824.50;;;25.16;93.46
40502;BME280;29631;49.168;9.848;2023-06-22T01:55:19;96807.00;;;25.13;93.44
40502;BME280;29631;49.168;9.848;2023-06-22T01:57:45;96796.47;;;25.12;93.06
40502;BME280;29631;49.168;9.848;2023-06-22T02:00:17;96816.25;;;25.26;93.54
40502;BME280;29631;49.168;9.848;2023-06-22T02:03:19;96818.16;;;25.25;94.01
40502;BME280;29631;49.168;9.848;2023-06-22T02:05:51;96812.75;;;25.25;93.81
40502;BME280;29631;49.168;9.848;2023-06-22T02:08:24;96802.09;;;25.15;93.48
40502;BME280;29631;49.168;9.848;2023-06-22T02:10:52;96800.72;;;25.18;93.33
40502;BME280;29631;49.168;9.848;2023-06-22T02:13:20;96804.66;;;25.25;94.01
40502;BME280;29631;49.168;9.848;2023-06-22T02:15:47;96786.50;;;25.12;93.50
40502;BME280;29631;49.168;9.848;2023-06-22T02:18:13;96790.28;;;25.11;93.56
40502;BME280;29631;49.168;9.848;2023-06-22T02:20:40;96795.03;;;25.19;93.63
40502;BME280;29631;49.168;9.848;2023-06-22T02:23:06;96797.22;;;25.17;93.77
40502;BME280;29631;49.168;9.848;2023-06-22T02:25:34;96789.91;;;25.18;94.02
40502;BME280;29631;49.168;9.848;2023-06-22T02:28:00;96788.38;;;25.12;94.22
40502;BME280;29631;49.168;9.848;2023-06-22T02:30:25;96768.22;;;25.04;94.01
40502;BME280;29631;49.168;9.848;2023-06-22T02:32:51;96785.41;;;25.13;93.99
40502;BME280;29631;49.168;9.848;2023-06-22T02:35:25;96768.22;;;25.04;94.12
40502;BME280;29631;49.168;9.848;2023-06-22T02:37:51;96772.50;;;25.10;94.33
40502;BME280;29631;49.168;9.848;2023-06-22T02:40:17;96780.00;;;25.13;94.34
40502;BME280;29631;49.168;9.848;2023-06-22T02:42:43;96785.69;;;25.12;94.37
40502;BME280;29631;49.168;9.848;2023-06-22T02:45:09;96775.69;;;25.12;94.17
40502;BME280;29631;49.168;9.848;2023-06-22T02:47:35;96752.50;;;25.11;94.33
40502;BME280;29631;49.168;9.848;2023-06-22T02:50:01;96763.13;;;25.21;94.23
40502;BME280;29631;49.168;9.848;2023-06-22T02:52:26;96766.91;;;25.20;93.72
40502;BME280;29631;49.168;9.848;2023-06-22T02:54:52;96771.31;;;25.16;94.70
40502;BME280;29631;49.168;9.848;2023-06-22T02:57:18;96772.03;;;25.22;94.76
40502;BME280;29631;49.168;9.848;2023-06-22T02:59:44;96765.34;;;25.19;94.21
40502;BME280;29631;49.168;9.848;2023-06-22T03:02:09;96750.31;;;25.13;94.65
40502;BME280;29631;49.168;9.848;2023-06-22T03:04:36;96748.09;;;25.15;94.69
40502;BME280;29631;49.168;9.848;2023-06-22T03:07:02;96747.53;;;25.18;94.37
40502;BME280;29631;49.168;9.848;2023-06-22T03:09:28;96735.69;;;25.14;94.52
40502;BME280;29631;49.168;9.848;2023-06-22T03:11:55;96730.38;;;25.09;94.54
40502;BME280;29631;49.168;9.848;2023-06-22T03:14:20;96734.53;;;25.20;94.12
40502;BME280;29631;49.168;9.848;2023-06-22T03:16:46;96742.03;;;25.23;94.73
40502;BME280;29631;49.168;9.848;2023-06-22T03:19:12;96735.13;;;25.17;94.19
40502;BME280;29631;49.168;9.848;2023-06-22T03:21:39;96732.34;;;25.22;94.84
40502;BME280;29631;49.168;9.848;2023-06-22T03:24:08;96737.16;;;25.25;94.92
40502;BME280;29631;49.168;9.848;2023-06-22T03:26:34;96698.50;;;25.11;94.59
40502;BME280;29631;49.168;9.848;2023-06-22T03:29:00;96707.63;;;25.15;94.78
40502;BME280;29631;49.168;9.848;2023-06-22T03:31:26;96717.31;;;25.16;94.51
40502;BME280;29631;49.168;9.848;2023-06-22T03:33:52;96739.88;;;25.25;94.34
40502;BME280;29631;49.168;9.848;2023-06-22T03:36:18;96728.63;;;25.18;94.81
40502;BME280;29631;49.168;9.848;2023-06-22T03:38:48;96718.31;;;25.20;94.67
40502;BME280;29631;49.168;9.848;2023-06-22T03:41:15;96722.56;;;25.26;95.43
40502;BME280;29631;49.168;9.848;2023-06-22T03:43:41;96719.03;;;25.12;94.56
40502;BME280;29631;49.168;9.848;2023-06-22T03:46:07;96721.63;;;25.17;94.67
40502;BME280;29631;49.168;9.848;2023-06-22T03:48:33;96701.72;;;25.13;94.76
40502;BME280;29631;49.168;9.848;2023-06-22T03:51:00;96716.97;;;25.23;95.00
40502;BME280;29631;49.168;9.848;2023-06-22T03:53:26;96718.75;;;25.27;95.25
40502;BME280;29631;49.168;9.848;2023-06-22T03:55:52;96714.53;;;25.21;94.86
40502;BME280;29631;49.168;9.848;2023-06-22T03:58:20;96727.97;;;25.26;94.64
40502;BME280;29631;49.168;9.848;2023-06-22T04:00:50;96724.25;;;25.22;94.82
40502;BME280;29631;49.168;9.848;2023-06-22T04:03:17;96722.56;;;25.26;94.94
40502;BME280;29631;49.168;9.848;2023-06-22T04:05:46;96702.34;;;25.24;95.17
40502;BME280;29631;49.168;9.848;2023-06-22T04:08:13;96717.97;;;25.27;95.12
40502;BME280;29631;49.168;9.848;2023-06-22T04:10:39;96717.53;;;25.20;94.96
40502;BME280;29631;49.168;9.848;2023-06-22T04:13:05;96743.00;;;25.32;95.10
40502;BME280;29631;49.168;9.848;2023-06-22T04:15:31;96724.34;;;25.31;95.61
40502;BME280;29631;49.168;9.848;2023-06-22T04:17:57;96708.38;;;25.34;95.58
40502;BME280;29631;49.168;9.848;2023-06-22T04:20:23;96713.78;;;25.34;95.50
40502;BME280;29631;49.168;9.848;2023-06-22T04:22:53;96715.56;;;25.25;95.60
40502;BME280;29631;49.168;9.848;2023-06-22T04:25:19;96741.50;;;25.40;95.45
40502;BME280;29631;49.168;9.848;2023-06-22T04:27:46;96718.59;;;25.37;95.36
40502;BME280;29631;49.168;9.848;2023-06-22T04:30:11;96695.97;;;25.33;95.02
40502;BME280;29631;49.168;9.848;2023-06-22T04:32:40;96698.59;;;25.38;95.23
40502;BME280;29631;49.168;9.848;2023-06-22T04:35:06;96673.75;;;25.23;95.15
40502;BME280;29631;49.168;9.848;2023-06-22T04:37:33;96699.59;;;25.42;95.85
40502;BME280;29631;49.168;9.848;2023-06-22T04:39:59;96701.00;;;25.40;95.83
40502;BME280;29631;49.168;9.848;2023-06-22T04:42:28;96711.41;;;25.46;95.80
40502;BME280;29631;49.168;9.848;2023-06-22T04:44:54;96679.59;;;25.43;95.67
40502;BME280;29631;49.168;9.848;2023-06-22T04:47:20;96674.41;;;25.47;96.03
40502;BME280;29631;49.168;9.848;2023-06-22T04:49:45;96692.84;;;25.58;95.79
40502;BME280;29631;49.168;9.848;2023-06-22T04:52:13;96703.03;;;25.61;95.78
40502;BME280;29631;49.168;9.848;2023-06-22T04:54:40;96692.44;;;25.51;96.38
40502;BME280;29631;49.168;9.848;2023-06-22T04:57:14;96705.22;;;25.59;96.19
40502;BME280;29631;49.168;9.848;2023-06-22T04:59:41;96681.00;;;25.54;96.45
40502;BME280;29631;49.168;9.848;2023-06-22T05:02:08;96673.63;;;25.60;96.48
40502;BME280;29631;49.168;9.848;2023-06-22T05:04:34;96663.59;;;25.60;96.21
40502;BME280;29631;49.168;9.848;2023-06-22T05:07:04;96667.75;;;25.71;96.36
40502;BME280;29631;49.168;9.848;2023-06-22T05:09:30;96675.25;;;25.74;96.41
40502;BME280;29631;49.168;9.848;2023-06-22T05:11:56;96649.81;;;25.62;96.53
40502;BME280;29631;49.168;9.848;2023-06-22T05:14:22;96676.44;;;25.81;96.46
40502;BME280;29631;49.168;9.848;2023-06-22T05:16:49;96663.25;;;25.80;96.72
40502;BME280;29631;49.168;9.848;2023-06-22T05:19:17;96652.94;;;25.82;96.34
40502;BME280;29631;49.168;9.848;2023-06-22T05:21:43;96656.84;;;25.89;96.68
40502;BME280;29631;49.168;9.848;2023-06-22T05:24:08;96655.75;;;25.90;96.32
40502;BME280;29631;49.168;9.848;2023-06-22T05:26:34;96642.66;;;25.84;96.51
40502;BME280;29631;49.168;9.848;2023-06-22T05:29:02;96644.84;;;25.82;96.71
40502;BME280;29631;49.168;9.848;2023-06-22T05:31:28;96663.88;;;26.04;96.84
40502;BME280;29631;49.168;9.848;2023-06-22T05:33:55;96672.84;;;26.13;96.94
40502;BME280;29631;49.168;9.848;2023-06-22T05:36:21;96660.53;;;26.07;96.53
40502;BME280;29631;49.168;9.848;2023-06-22T05:38:51;96663.63;;;26.14;96.55
40502;BME280;29631;49.168;9.848;2023-06-22T05:41:17;96664.94;;;26.16;96.71
40502;BME280;29631;49.168;9.848;2023-06-22T05:43:43;96659.22;;;26.18;97.05
40502;BME280;29631;49.168;9.848;2023-06-22T05:46:09;96672.53;;;26.28;96.81
40502;BME280;29631;49.168;9.848;2023-06-22T05:48:35;96662.03;;;26.26;97.36
40502;BME280;29631;49.168;9.848;2023-06-22T05:51:00;96678.25;;;26.40;97.04
40502;BME280;29631;49.168;9.848;2023-06-22T05:53:26;96661.41;;;26.42;97.22
40502;BME280;29631;49.168;9.848;2023-06-22T05:55:52;96599.97;;;26.08;96.87
40502;BME280;29631;49.168;9.848;2023-06-22T05:58:18;96651.97;;;26.53;97.31
40502;BME280;29631;49.168;9.848;2023-06-22T06:00:43;96650.75;;;26.59;97.49
40502;BME280;29631;49.168;9.848;2023-06-22T06:03:10;96639.56;;;26.52;97.17
40502;BME280;29631;49.168;9.848;2023-06-22T06:05:37;96630.81;;;26.55;97.28
40502;BME280;29631;49.168;9.848;2023-06-22T06:08:05;96647.00;;;26.69;97.30
40502;BME280;29631;49.168;9.848;2023-06-22T06:10:33;96632.31;;;26.61;97.59
40502;BME280;29631;49.168;9.848;2023-06-22T06:12:59;96649.28;;;26.75;97.14
40502;BME280;29631;49.168;9.848;2023-06-22T06:15:28;96592.06;;;26.46;97.21
40502;BME280;29631;49.168;9.848;2023-06-22T06:17:54;96644.25;;;26.82;97.02
40502;BME280;29631;49.168;9.848;2023-06-22T06:20:25;96639.31;;;26.84;97.25
40502;BME280;29631;49.168;9.848;2023-06-22T06:22:51;96647.63;;;26.88;97.48
40502;BME280;29631;49.168;9.848;2023-06-22T06:25:17;96647.44;;;26.84;97.10
40502;BME280;29631;49.168;9.848;2023-06-22T06:27:50;96598.50;;;26.72;97.44
40502;BME280;29631;49.168;9.848;2023-06-22T06:30:18;96649.25;;;27.11;97.35
40502;BME280;29631;49.168;9.848;2023-06-22T06:32:45;96646.25;;;27.12;96.98
40502;BME280;29631;49.168;9.848;2023-06-22T06:35:13;96645.81;;;27.18;97.52
40502;BME280;29631;49.168;9.848;2023-06-22T06:37:45;96649.31;;;27.19;97.76
40502;BME280;29631;49.168;9.848;2023-06-22T06:40:12;96617.06;;;27.09;97.40
40502;BME280;29631;49.168;9.848;2023-06-22T06:42:46;96640.59;;;27.30;97.75
40502;BME280;29631;49.168;9.848;2023-06-22T06:45:16;96617.78;;;27.23;97.81
40502;BME280;29631;49.168;9.848;2023-06-22T06:47:42;96632.56;;;27.39;97.66
40502;BME280;29631;49.168;9.848;2023-06-22T06:50:08;96635.47;;;27.51;96.94
40502;BME280;29631;49.168;9.848;2023-06-22T06:52:35;96630.22;;;27.54;96.54
40502;BME280;29631;49.168;9.848;2023-06-22T06:55:01;96630.06;;;27.51;96.79
40502;BME280;29631;49.168;9.848;2023-06-22T06:57:27;96627.69;;;27.58;96.61
40502;BME280;29631;49.168;9.848;2023-06-22T06:59:55;96624.38;;;27.61;96.74
40502;BME280;29631;49.168;9.848;2023-06-22T07:02:22;96614.03;;;27.63;96.47
40502;BME280;29631;49.168;9.848;2023-06-22T07:04:48;96620.91;;;27.69;96.57
40502;BME280;29631;49.168;9.848;2023-06-22T07:07:14;96611.66;;;27.70;95.78
40502;BME280;29631;49.168;9.848;2023-06-22T07:09:40;96620.31;;;27.80;96.60
40502;BME280;29631;49.168;9.848;2023-06-22T07:12:06;96613.47;;;27.83;96.42
40502;BME280;29631;49.168;9.848;2023-06-22T07:14:32;96618.25;;;27.86;96.83
40502;BME280;29631;49.168;9.848;2023-06-22T07:16:58;96621.31;;;27.92;96.64
40502;BME280;29631;49.168;9.848;2023-06-22T07:19:25;96627.72;;;27.96;96.48
40502;BME280;29631;49.168;9.848;2023-06-22T07:21:53;96621.63;;;27.99;96.56
40502;BME280;29631;49.168;9.848;2023-06-22T07:24:20;96634.78;;;28.14;96.74
40502;BME280;29631;49.168;9.848;2023-06-22T07:26:48;96628.69;;;28.17;96.47
40502;BME280;29631;49.168;9.848;2023-06-22T07:29:18;96612.31;;;28.22;96.58
40502;BME280;29631;49.168;9.848;2023-06-22T07:31:45;96621.75;;;28.33;96.04
40502;BME280;29631;49.168;9.848;2023-06-22T07:34:11;96619.97;;;28.37;95.59
40502;BME280;29631;49.168;9.848;2023-06-22T07:36:37;96627.84;;;28.47;95.02
40502;BME280;29631;49.168;9.848;2023-06-22T07:39:03;96619.19;;;28.45;95.15
40502;BME280;29631;49.168;9.848;2023-06-22T07:41:30;96616.97;;;28.47;94.74
40502;BME280;29631;49.168;9.848;2023-06-22T07:43:56;96609.44;;;28.53;94.16
40502;BME280;29631;49.168;9.848;2023-06-22T07:46:22;96609.00;;;28.59;94.31
40502;BME280;29631;49.168;9.848;2023-06-22T07:48:48;96617.13;;;28.67;93.69
40502;BME280;29631;49.168;9.848;2023-06-22T07:51:14;96615.06;;;28.73;94.20
40502;BME280;29631;49.168;9.848;2023-06-22T07:53:42;96608.97;;;28.76;93.35
40502;BME280;29631;49.168;9.848;2023-06-22T07:56:10;96613.16;;;28.82;93.05
40502;BME280;29631;49.168;9.848;2023-06-22T07:58:36;96601.16;;;28.83;92.80
40502;BME280;29631;49.168;9.848;2023-06-22T08:01:02;96603.25;;;28.94;92.79
40502;BME280;29631;49.168;9.848;2023-06-22T08:03:29;96597.47;;;28.96;92.38
40502;BME280;29631;49.168;9.848;2023-06-22T08:05:55;96587.59;;;29.00;92.69
40502;BME280;29631;49.168;9.848;2023-06-22T08:08:21;96592.19;;;29.08;92.49
40502;BME280;29631;49.168;9.848;2023-06-22T08:10:46;96581.81;;;29.10;92.46
40502;BME280;29631;49.168;9.848;2023-06-22T08:13:12;96579.88;;;29.19;92.75
40502;BME280;29631;49.168;9.848;2023-06-22T08:15:38;96585.59;;;29.26;92.02
40502;BME280;29631;49.168;9.848;2023-06-22T08:18:04;96574.06;;;29.29;91.74
40502;BME280;29631;49.168;9.848;2023-06-22T08:20:30;96568.00;;;29.32;91.55
40502;BME280;29631;49.168;9.848;2023-06-22T08:22:57;96563.50;;;29.44;91.55
40502;BME280;29631;49.168;9.848;2023-06-22T08:25:25;96555.97;;;29.49;90.94
40502;BME280;29631;49.168;9.848;2023-06-22T08:27:51;96549.69;;;29.57;90.73
40502;BME280;29631;49.168;9.848;2023-06-22T08:30:17;96553.00;;;29.63;90.44
40502;BME280;29631;49.168;9.848;2023-06-22T08:32:44;96554.75;;;29.67;91.28
40502;BME280;29631;49.168;9.848;2023-06-22T08:35:10;96555.03;;;29.74;90.51
40502;BME280;29631;49.168;9.848;2023-06-22T08:37:36;96542.84;;;29.80;90.25
40502;BME280;29631;49.168;9.848;2023-06-22T08:40:07;96541.19;;;29.88;89.58
40502;BME280;29631;49.168;9.848;2023-06-22T08:42:35;96532.41;;;29.91;89.80
40502;BME280;29631;49.168;9.848;2023-06-22T08:45:01;96544.03;;;30.00;89.83
40502;BME280;29631;49.168;9.848;2023-06-22T08:47:29;96546.22;;;30.06;89.55
40502;BME280;29631;49.168;9.848;2023-06-22T08:49:55;96541.06;;;30.13;89.08
40502;BME280;29631;49.168;9.848;2023-06-22T08:52:22;96550.63;;;30.19;88.70
40502;BME280;29631;49.168;9.848;2023-06-22T08:54:49;96547.69;;;30.24;89.22
40502;BME280;29631;49.168;9.848;2023-06-22T08:57:15;96550.69;;;30.31;88.95
40502;BME280;29631;49.168;9.848;2023-06-22T08:59:42;96566.16;;;30.39;88.82
40502;BME280;29631;49.168;9.848;2023-06-22T09:02:07;96576.22;;;30.47;88.35
40502;BME280;29631;49.168;9.848;2023-06-22T09:04:33;96570.78;;;30.47;89.05
40502;BME280;29631;49.168;9.848;2023-06-22T09:07:02;96569.09;;;30.54;88.75
40502;BME280;29631;49.168;9.848;2023-06-22T09:09:28;96587.88;;;30.68;88.72
40502;BME280;29631;49.168;9.848;2023-06-22T09:11:54;96596.31;;;30.75;88.59
40502;BME280;29631;49.168;9.848;2023-06-22T09:14:19;96586.50;;;30.82;87.93
40502;BME280;29631;49.168;9.848;2023-06-22T09:16:45;96597.44;;;30.94;88.64
40502;BME280;29631;49.168;9.848;2023-06-22T09:19:11;96597.38;;;31.02;88.24
40502;BME280;29631;49.168;9.848;2023-06-22T09:21:37;96591.03;;;31.10;88.01
40502;BME280;29631;49.168;9.848;2023-06-22T09:24:03;96594.94;;;31.21;88.13
40502;BME280;29631;49.168;9.848;2023-06-22T09:26:29;96589.72;;;31.28;88.32
40502;BME280;29631;49.168;9.848;2023-06-22T09:28:54;96586.09;;;31.36;87.72
40502;BME280;29631;49.168;9.848;2023-06-22T09:31:20;96574.63;;;31.43;87.52
40502;BME280;29631;49.168;9.848;2023-06-22T09:33:53;96582.06;;;31.54;87.77
40502;BME280;29631;49.168;9.848;2023-06-22T09:36:23;96574.34;;;31.56;87.32
40502;BME280;29631;49.168;9.848;2023-06-22T09:38:49;96569.13;;;31.63;86.92
40502;BME280;29631;49.168;9.848;2023-06-22T09:41:24;96562.63;;;31.67;87.37
40502;BME280;29631;49.168;9.848;2023-06-22T09:43:50;96561.38;;;31.77;87.16
40502;BME280;29631;49.168;9.848;2023-06-22T09:46:16;96544.81;;;31.82;86.86
40502;BME280;29631;49.168;9.848;2023-06-22T09:48:42;96541.84;;;31.87;86.72
40502;BME280;29631;49.168;9.848;2023-06-22T09:51:08;96545.25;;;31.96;86.64
40502;BME280;29631;49.168;9.848;2023-06-22T09:53:34;96542.97;;;31.98;86.67
40502;BME280;29631;49.168;9.848;2023-06-22T09:56:03;96546.03;;;32.08;85.97
40502;BME280;29631;49.168;9.848;2023-06-22T09:58:29;96547.88;;;32.16;86.16
40502;BME280;29631;49.168;9.848;2023-06-22T10:00:55;96554.78;;;32.26;86.10
40502;BME280;29631;49.168;9.848;2023-06-22T10:03:21;96550.66;;;32.32;85.78
40502;BME280;29631;49.168;9.848;2023-06-22T10:05:47;96558.38;;;32.42;86.03
40502;BME280;29631;49.168;9.848;2023-06-22T10:08:12;96545.16;;;32.43;85.46
40502;BME280;29631;49.168;9.848;2023-06-22T10:10:38;96542.19;;;32.48;85.83
40502;BME280;29631;49.168;9.848;2023-06-22T10:13:10;96546.97;;;32.51;85.24
40502;BME280;29631;49.168;9.848;2023-06-22T10:15:37;96568.13;;;32.66;85.41
40502;BME280;29631;49.168;9.848;2023-06-22T10:18:04;96582.00;;;32.73;84.95
40502;BME280;29631;49.168;9.848;2023-06-22T10:20:30;96578.91;;;32.75;84.30
40502;BME280;29631;49.168;9.848;2023-06-22T10:22:55;96574.44;;;32.82;83.74
40502;BME280;29631;49.168;9.848;2023-06-22T10:25:21;96555.84;;;32.88;84.11
40502;BME280;29631;49.168;9.848;2023-06-22T10:27:47;96551.09;;;33.00;83.96
40502;BME280;29631;49.168;9.848;2023-06-22T10:30:14;96551.00;;;33.09;83.85
40502;BME280;29631;49.168;9.848;2023-06-22T10:32:42;96536.25;;;33.13;83.62
40502;BME280;29631;49.168;9.848;2023-06-22T10:35:09;96544.38;;;33.25;83.68
40502;BME280;29631;49.168;9.848;2023-06-22T10:37:36;96548.47;;;33.31;83.49
40502;BME280;29631;49.168;9.848;2023-06-22T10:40:03;96541.06;;;33.31;83.07
40502;BME280;29631;49.168;9.848;2023-06-22T10:42:29;96541.59;;;33.37;82.50
40502;BME280;29631;49.168;9.848;2023-06-22T10:44:55;96547.66;;;33.46;82.95
40502;BME280;29631;49.168;9.848;2023-06-22T10:47:21;96550.22;;;33.54;82.83
40502;BME280;29631;49.168;9.848;2023-06-22T10:49:46;96524.25;;;33.60;82.71
40502;BME280;29631;49.168;9.848;2023-06-22T10:52:12;96520.16;;;33.70;82.95
40502;BME280;29631;49.168;9.848;2023-06-22T10:54:38;96529.06;;;33.82;82.32
40502;BME280;29631;49.168;9.848;2023-06-22T10:57:04;96524.53;;;33.90;82.38
40502;BME280;29631;49.168;9.848;2023-06-22T10:59:30;96525.91;;;33.99;81.98
40502;BME280;29631;49.168;9.848;2023-06-22T11:01:56;96520.88;;;34.01;81.88
40502;BME280;29631;49.168;9.848;2023-06-22T11:04:23;96504.91;;;34.03;81.90
40502;BME280;29631;49.168;9.848;2023-06-22T11:06:49;96478.22;;;34.00;81.66
40502;BME280;29631;49.168;9.848;2023-06-22T11:09:16;96487.75;;;34.21;81.32
40502;BME280;29631;49.168;9.848;2023-06-22T11:11:51;96463.50;;;34.23;80.37
40502;BME280;29631;49.168;9.848;2023-06-22T11:14:20;96442.81;;;34.26;80.63
40502;BME280;29631;49.168;9.848;2023-06-22T11:16:47;96443.91;;;34.40;80.99
40502;BME280;29631;49.168;9.848;2023-06-22T11:19:12;96438.44;;;34.40;81.34
40502;BME280;29631;49.168;9.848;2023-06-22T11:21:38;96448.44;;;34.52;80.87
40502;BME280;29631;49.168;9.848;2023-06-22T11:24:05;96460.63;;;34.54;80.19
40502;BME280;29631;49.168;9.848;2023-06-22T11:26:30;96461.97;;;34.60;80.24
40502;BME280;29631;49.168;9.848;2023-06-22T11:28:58;96466.41;;;34.68;80.03
40502;BME280;29631;49.168;9.848;2023-06-22T11:31:24;96473.63;;;34.76;79.64
40502;BME280;29631;49.168;9.848;2023-06-22T11:33:50;96466.25;;;34.80;79.27
40502;BME280;29631;49.168;9.848;2023-06-22T11:36:16;96454.56;;;34.83;79.20
40502;BME280;29631;49.168;9.848;2023-06-22T11:38:43;96453.47;;;34.87;79.19
40502;BME280;29631;49.168;9.848;2023-06-22T11:41:10;96441.03;;;34.93;79.26
40502;BME280;29631;49.168;9.848;2023-06-22T11:43:36;96440.34;;;35.00;79.25
40502;BME280;29631;49.168;9.848;2023-06-22T11:46:03;96440.50;;;35.07;79.32
40502;BME280;29631;49.168;9.848;2023-06-22T11:48:30;96430.41;;;35.11;78.80
40502;BME280;29631;49.168;9.848;2023-06-22T11:50:56;96417.03;;;35.09;78.19
40502;BME280;29631;49.168;9.848;2023-06-22T11:53:24;96428.94;;;35.17;78.70
40502;BME280;29631;49.168;9.848;2023-06-22T11:55:50;96435.72;;;35.23;78.79
40502;BME280;29631;49.168;9.848;2023-06-22T11:58:16;96422.38;;;35.25;78.39
40502;BME280;29631;49.168;9.848;2023-06-22T12:00:42;96425.25;;;35.32;78.86
40502;BME280;29631;49.168;9.848;2023-06-22T12:03:08;96425.75;;;35.37;78.60
40502;BME280;29631;49.168;9.848;2023-06-22T12:05:34;96406.91;;;35.36;78.49
40502;BME280;29631;49.168;9.848;2023-06-22T12:08:00;96412.56;;;35.46;78.45
40502;BME280;29631;49.168;9.848;2023-06-22T12:10:26;96423.25;;;35.51;78.56
40502;BME280;29631;49.168;9.848;2023-06-22T12:12:54;96430.38;;;35.55;78.11
40502;BME280;29631;49.168;9.848;2023-06-22T12:15:19;96426.06;;;35.54;77.54
40502;BME280;29631;49.168;9.848;2023-06-22T12:17:45;96422.56;;;35.57;78.28
40502;BME280;29631;49.168;9.848;2023-06-22T12:20:11;96416.22;;;35.53;77.65
40502;BME280;29631;49.168;9.848;2023-06-22T12:22:37;96404.41;;;35.50;77.59
40502;BME280;29631;49.168;9.848;2023-06-22T12:25:03;96410.84;;;35.60;77.15
40502;BME280;29631;49.168;9.848;2023-06-22T12:27:29;96423.81;;;35.63;77.69
40502;BME280;29631;49.168;9.848;2023-06-22T12:29:58;96419.50;;;35.62;77.05
40502;BME280;29631;49.168;9.848;2023-06-22T12:32:24;96421.41;;;35.58;76.85
40502;BME280;29631;49.168;9.848;2023-06-22T12:34:51;96411.47;;;35.50;77.28
40502;BME280;29631;49.168;9.848;2023-06-22T12:37:16;96422.50;;;35.54;76.63
40502;BME280;29631;49.168;9.848;2023-06-22T12:39:43;96431.59;;;35.58;76.41
40502;BME280;29631;49.168;9.848;2023-06-22T12:42:09;96419.34;;;35.52;76.26
40502;BME280;29631;49.168;9.848;2023-06-22T12:44:38;96439.78;;;35.54;75.70
40502;BME280;29631;49.168;9.848;2023-06-22T12:47:04;96435.81;;;35.52;75.66
40502;BME280;29631;49.168;9.848;2023-06-22T12:49:30;96436.59;;;35.52;75.80
40502;BME280;29631;49.168;9.848;2023-06-22T12:51:56;96434.28;;;35.54;76.41
40502;BME280;29631;49.168;9.848;2023-06-22T12:54:22;96419.22;;;35.45;75.99
40502;BME280;29631;49.168;9.848;2023-06-22T12:56:47;96429.53;;;35.51;76.04
40502;BME280;29631;49.168;9.848;2023-06-22T12:59:13;96425.63;;;35.52;76.02
40502;BME280;29631;49.168;9.848;2023-06-22T13:01:39;96424.41;;;35.50;75.63